Time;durP1;ratioP1;P1;durP2;ratioP2;P2;SDS_P1;SDS_P2;PMS_P1;PMS_P2;Temp;Humidity;BMP_temperature;BMP_pressure;BME280_temperature;BME280_humidity;BME280_pressure;Samples;Min_cycle;Max_cycle;Signal;HPM_P1;HPM_P2
2023/07/07 00:01:48;;;;;;;14.73;11.48;;;640.10;2432.00;;;;;;5076134;28;20024;-70
2023/07/07 00:04:14;;;;;;;17.73;13.05;;;640.00;2432.00;;;;;;5075982;28;20469;-79
2023/07/07 00:06:40;;;;;;;21.92;13.43;;;615.30;2432.00;;;;;;5076131;28;20097;-74
2023/07/07 00:09:06;;;;;;;20.58;14.25;;;615.20;2432.00;;;;;;5075835;28;20028;-69
2023/07/07 00:11:31;;;;;;;21.80;14.98;;;640.10;2432.00;;;;;;5075781;28;20497;-70
2023/07/07 00:13:57;;;;;;;22.08;15.38;;;640.10;2432.00;;;;;;5075928;28;20031;-74
2023/07/07 00:16:27;;;;;;;24.80;17.42;;;640.40;2432.00;;;;;;5075794;28;20016;-70
2023/07/07 00:18:54;;;;;;;22.60;16.50;;;640.40;2432.00;;;;;;5075813;28;20102;-69
2023/07/07 00:21:24;;;;;;;24.55;16.83;;;640.20;2432.00;;;;;;5075947;28;20024;-70
2023/07/07 00:23:53;;;;;;;22.13;16.75;;;640.50;2432.00;;;;;;5063119;28;20021;-70
2023/07/07 00:26:20;;;;;;;24.65;17.27;;;640.50;2432.00;;;;;;5075414;28;20036;-70
2023/07/07 00:28:47;;;;;;;23.55;18.23;;;640.50;2432.00;;;;;;5075831;28;20017;-78
2023/07/07 00:31:13;;;;;;;19.63;16.50;;;640.50;2432.00;;;;;;5075357;28;20051;-73
2023/07/07 00:33:39;;;;;;;18.17;12.15;;;640.50;2432.00;;;;;;5075677;28;20359;-71
2023/07/07 00:36:05;;;;;;;16.50;11.32;;;640.50;2432.00;;;;;;5075508;28;20026;-79
2023/07/07 00:38:31;;;;;;;16.40;12.20;;;640.40;2432.00;;;;;;5075506;28;20037;-79
2023/07/07 00:41:01;;;;;;;14.63;11.30;;;640.40;2432.00;;;;;;5075455;28;20028;-70
2023/07/07 00:43:26;;;;;;;14.30;10.32;;;640.20;2432.00;;;;;;5075313;28;20469;-78
2023/07/07 00:45:52;;;;;;;17.88;11.90;;;640.10;2432.00;;;;;;5075452;28;20078;-71
2023/07/07 00:48:22;;;;;;;14.05;10.38;;;640.10;2432.00;;;;;;5075458;28;20382;-77
2023/07/07 00:51:06;;;;;;;14.60;9.43;;;640.10;2432.00;;;;;;5075273;28;20012;-79
2023/07/07 00:53:32;;;;;;;15.15;10.13;;;615.30;2432.00;;;;;;5074712;28;20271;-79
2023/07/07 00:56:09;;;;;;;13.57;9.40;;;615.30;2432.00;;;;;;5074707;28;20052;-70
2023/07/07 00:58:38;;;;;;;15.77;8.95;;;615.30;2432.00;;;;;;5074806;28;20482;-70
2023/07/07 01:01:12;;;;;;;14.35;8.57;;;615.30;2432.00;;;;;;5075290;28;20140;-77
2023/07/07 01:03:58;;;;;;;14.40;9.23;;;615.20;2432.00;;;;;;5075185;28;20535;-77
2023/07/07 01:06:27;;;;;;;17.23;8.25;;;615.10;2432.00;;;;;;5075072;28;20028;-77
2023/07/07 01:09:01;;;;;;;16.17;8.23;;;615.10;2432.00;;;;;;5074828;28;20044;-71
2023/07/07 01:11:30;;;;;;;14.63;8.70;;;615.00;2432.00;;;;;;5074238;28;20181;-70
2023/07/07 01:13:57;;;;;;;11.77;7.47;;;614.90;2432.00;;;;;;5075090;28;20373;-78
2023/07/07 01:16:23;;;;;;;15.02;8.10;;;614.90;2432.00;;;;;;5074715;28;20020;-70
2023/07/07 01:19:15;;;;;;;10.45;7.72;;;615.00;2432.00;;;;;;5074859;28;20043;-70
2023/07/07 01:21:54;;;;;;;12.98;7.55;;;615.00;2432.00;;;;;;5074735;28;20091;-78
2023/07/07 01:24:52;;;;;;;16.17;7.40;;;614.90;2432.00;;;;;;5074462;28;20024;-78
2023/07/07 01:27:30;;;;;;;14.07;6.88;;;614.90;2432.00;;;;;;5025724;28;20053;-70
2023/07/07 01:30:29;;;;;;;9.48;7.30;;;614.90;2432.00;;;;;;5012831;28;20053;-70
2023/07/07 01:32:55;;;;;;;11.70;7.22;;;614.90;2432.00;;;;;;4999052;28;20388;-70
2023/07/07 01:35:22;;;;;;;10.80;5.82;;;614.90;2432.00;;;;;;5012581;28;20022;-78
2023/07/07 01:37:56;;;;;;;10.23;5.95;;;614.90;2432.00;;;;;;5012740;28;20046;-78
2023/07/07 01:40:41;;;;;;;10.98;5.88;;;614.80;2432.00;;;;;;5012704;28;20056;-70
2023/07/07 01:43:13;;;;;;;12.02;5.82;;;614.80;2432.00;;;;;;5012242;28;20523;-78
2023/07/07 01:45:48;;;;;;;12.75;6.07;;;614.70;2432.00;;;;;;5012570;28;20057;-70
2023/07/07 01:48:41;;;;;;;10.70;5.75;;;614.60;2432.00;;;;;;5012698;28;20030;-70
2023/07/07 01:51:11;;;;;;;12.18;5.65;;;614.60;2432.00;;;;;;5011966;28;20095;-78
2023/07/07 01:53:41;;;;;;;9.32;5.07;;;614.70;2432.00;;;;;;4992387;28;20138;-79
2023/07/07 01:56:09;;;;;;;10.25;5.78;;;614.60;2432.00;;;;;;5012041;28;20054;-78
2023/07/07 01:58:36;;;;;;;12.55;6.00;;;614.50;2432.00;;;;;;5012134;28;20109;-78
2023/07/07 02:01:02;;;;;;;14.20;5.80;;;614.50;2432.00;;;;;;5012284;28;20526;-77
2023/07/07 02:03:28;;;;;;;11.60;5.35;;;614.50;2432.00;;;;;;5030796;28;20033;-78
2023/07/07 02:05:54;;;;;;;14.20;6.05;;;614.40;2432.00;;;;;;5072810;28;20416;-69
2023/07/07 02:08:20;;;;;;;14.48;5.20;;;614.40;2432.00;;;;;;5073804;28;20023;-70
2023/07/07 02:10:46;;;;;;;10.30;5.78;;;614.50;2432.00;;;;;;5073937;28;20021;-74
2023/07/07 02:13:11;;;;;;;9.75;5.60;;;614.40;2432.00;;;;;;5073611;28;20209;-70
2023/07/07 02:15:37;;;;;;;18.48;7.03;;;614.40;2432.00;;;;;;5073674;28;20029;-70
2023/07/07 02:18:04;;;;;;;15.63;5.25;;;589.70;2432.00;;;;;;5073527;28;20119;-72
2023/07/07 02:20:30;;;;;;;12.10;5.22;;;589.70;2432.00;;;;;;5060706;28;20028;-70
2023/07/07 02:22:56;;;;;;;10.95;5.30;;;614.40;2432.00;;;;;;5060093;28;20078;-70
2023/07/07 02:25:22;;;;;;;7.20;5.00;;;614.40;2432.00;;;;;;5073325;28;20393;-73
2023/07/07 02:27:48;;;;;;;15.02;5.72;;;614.50;2432.00;;;;;;5073363;28;20035;-77
2023/07/07 02:30:14;;;;;;;10.48;6.35;;;614.50;2432.00;;;;;;5060266;28;20054;-70
2023/07/07 02:32:39;;;;;;;11.77;5.88;;;614.50;2432.00;;;;;;5073383;28;20389;-70
2023/07/07 02:35:10;;;;;;;27.05;7.18;;;614.50;2432.00;;;;;;5073679;28;20051;-70
2023/07/07 02:37:35;;;;;;;11.95;5.57;;;614.50;2432.00;;;;;;5072965;28;20032;-76
2023/07/07 02:40:01;;;;;;;8.13;5.13;;;614.50;2432.00;;;;;;5073663;28;20031;-78
2023/07/07 02:42:27;;;;;;;11.65;5.30;;;614.40;2432.00;;;;;;5073321;28;20028;-78
2023/07/07 02:44:52;;;;;;;15.55;6.00;;;614.40;2432.00;;;;;;5073203;28;20369;-77
2023/07/07 02:47:18;;;;;;;9.60;5.53;;;589.70;2432.00;;;;;;5073120;28;20021;-70
2023/07/07 02:49:44;;;;;;;18.13;5.90;;;589.70;2432.00;;;;;;5073345;28;20025;-70
2023/07/07 02:52:10;;;;;;;12.27;5.65;;;589.70;2432.00;;;;;;5073034;28;20028;-70
2023/07/07 02:54:35;;;;;;;12.45;5.68;;;589.70;2432.00;;;;;;5073033;28;20025;-70
2023/07/07 02:57:02;;;;;;;11.23;5.70;;;589.70;2432.00;;;;;;5072779;28;20052;-78
2023/07/07 02:59:28;;;;;;;17.95;5.82;;;589.70;2432.00;;;;;;5072904;28;20546;-70
2023/07/07 03:01:54;;;;;;;13.13;5.03;;;589.60;2432.00;;;;;;5072816;28;20052;-70
2023/07/07 03:04:20;;;;;;;22.60;6.65;;;589.70;2432.00;;;;;;5073143;28;20095;-72
2023/07/07 03:06:47;;;;;;;16.30;5.47;;;589.70;2432.00;;;;;;5072868;28;20032;-78
2023/07/07 03:09:13;;;;;;;11.20;6.13;;;589.70;2432.00;;;;;;5072983;28;20056;-69
2023/07/07 03:11:39;;;;;;;9.68;6.25;;;589.70;2432.00;;;;;;5072970;28;20052;-70
2023/07/07 03:14:05;;;;;;;13.02;6.00;;;589.70;2432.00;;;;;;5072904;28;20055;-71
2023/07/07 03:16:31;;;;;;;12.25;7.10;;;589.70;2432.00;;;;;;5072755;28;20482;-72
2023/07/07 03:18:59;;;;;;;9.60;5.43;;;589.70;2432.00;;;;;;5076896;28;20050;-73
2023/07/07 03:21:25;;;;;;;17.13;7.35;;;589.50;2432.00;;;;;;5076825;28;20032;-72
2023/07/07 03:23:55;;;;;;;11.10;6.03;;;589.60;2432.00;;;;;;5076907;28;20474;-70
2023/07/07 03:26:24;;;;;;;13.60;5.70;;;589.60;2432.00;;;;;;5076903;28;20036;-74
2023/07/07 03:28:50;;;;;;;15.10;6.45;;;589.60;2432.00;;;;;;5076716;28;20489;-78
2023/07/07 03:31:23;;;;;;;17.10;6.65;;;589.70;2432.00;;;;;;5076914;28;20059;-70
2023/07/07 03:33:52;;;;;;;11.43;6.13;;;589.50;2432.00;;;;;;5076912;28;20024;-69
2023/07/07 03:36:21;;;;;;;15.25;6.38;;;589.30;2432.00;;;;;;5076382;28;20095;-77
2023/07/07 03:38:47;;;;;;;14.10;7.10;;;589.10;2432.00;;;;;;5076518;28;20424;-69
2023/07/07 03:41:15;;;;;;;12.63;6.57;;;589.10;2432.00;;;;;;5076768;28;20048;-70
2023/07/07 03:43:44;;;;;;;13.63;6.90;;;589.00;2432.00;;;;;;5076467;28;20016;-70
2023/07/07 03:46:14;;;;;;;9.93;6.07;;;589.00;2432.00;;;;;;5076422;28;20112;-70
2023/07/07 03:48:40;;;;;;;17.20;8.50;;;588.90;2432.00;;;;;;5076372;28;20052;-70
2023/07/07 03:51:06;;;;;;;17.35;8.80;;;589.10;2432.00;;;;;;5076336;28;20059;-78
2023/07/07 03:53:32;;;;;;;17.80;7.25;;;589.30;2432.00;;;;;;5076391;28;20063;-70
2023/07/07 03:55:58;;;;;;;14.65;7.68;;;589.50;2432.00;;;;;;5075996;28;20044;-78
2023/07/07 03:58:25;;;;;;;13.35;7.25;;;589.50;2432.00;;;;;;5076161;28;20043;-70
2023/07/07 04:00:51;;;;;;;12.40;8.55;;;589.40;2432.00;;;;;;5076273;28;20074;-78
2023/07/07 04:03:17;;;;;;;13.90;7.80;;;589.40;2432.00;;;;;;5074917;28;20028;-70
2023/07/07 04:05:46;;;;;;;14.48;7.72;;;589.40;2432.00;;;;;;5075987;28;20020;-70
2023/07/07 04:08:12;;;;;;;21.42;8.10;;;589.50;2432.00;;;;;;5076252;28;20100;-78
2023/07/07 04:10:40;;;;;;;17.25;8.27;;;589.50;2432.00;;;;;;5076161;28;20021;-69
2023/07/07 04:13:07;;;;;;;15.43;7.75;;;589.50;2432.00;;;;;;5076016;28;20068;-78
2023/07/07 04:15:33;;;;;;;13.13;8.35;;;589.50;2432.00;;;;;;5075750;28;20036;-73
2023/07/07 04:17:59;;;;;;;14.15;8.60;;;589.60;2432.00;;;;;;5075954;28;20505;-70
2023/07/07 04:20:25;;;;;;;14.85;9.02;;;589.40;2432.00;;;;;;5075601;28;20021;-70
2023/07/07 04:22:51;;;;;;;18.02;9.38;;;589.40;2432.00;;;;;;5075830;28;20025;-69
2023/07/07 04:25:18;;;;;;;16.88;10.30;;;589.40;2432.00;;;;;;5075808;28;20024;-69
2023/07/07 04:27:45;;;;;;;15.18;9.55;;;589.40;2432.00;;;;;;5076058;28;20033;-70
2023/07/07 04:30:11;;;;;;;14.23;8.95;;;589.50;2432.00;;;;;;5074714;28;20016;-78
2023/07/07 04:32:39;;;;;;;12.50;9.02;;;589.40;2432.00;;;;;;5074244;28;20385;-78
2023/07/07 04:35:05;;;;;;;13.07;8.65;;;589.30;2432.00;;;;;;5075644;28;20381;-70
2023/07/07 04:37:31;;;;;;;15.80;8.90;;;589.30;2432.00;;;;;;5078920;28;21192;-69
2023/07/07 04:39:57;;;;;;;15.63;9.13;;;589.30;2432.00;;;;;;5079946;28;20025;-69
2023/07/07 04:42:23;;;;;;;11.43;9.23;;;589.30;2432.00;;;;;;5082389;28;20024;-70
2023/07/07 04:44:49;;;;;;;16.00;9.63;;;589.30;2432.00;;;;;;5077685;28;20073;-70
2023/07/07 04:47:15;;;;;;;18.48;8.68;;;589.30;2432.00;;;;;;5080944;28;20543;-69
2023/07/07 04:49:40;;;;;;;17.10;9.27;;;589.40;2432.00;;;;;;5084810;28;20478;-70
2023/07/07 04:52:07;;;;;;;18.40;8.98;;;589.30;2432.00;;;;;;5081166;28;20020;-69
2023/07/07 04:54:35;;;;;;;13.77;10.00;;;589.40;2432.00;;;;;;5087729;28;20068;-69
2023/07/07 04:57:03;;;;;;;14.10;9.27;;;589.50;2432.00;;;;;;5088306;28;20108;-70
2023/07/07 04:59:30;;;;;;;12.02;8.20;;;589.50;2432.00;;;;;;5067835;28;20017;-70
2023/07/07 05:01:57;;;;;;;12.68;9.13;;;589.50;2432.00;;;;;;5079793;28;20103;-70
2023/07/07 05:04:22;;;;;;;13.80;9.07;;;589.50;2432.00;;;;;;5077595;28;20024;-70
2023/07/07 05:06:48;;;;;;;14.18;9.43;;;589.50;2432.00;;;;;;5083467;28;20016;-72
2023/07/07 05:09:16;;;;;;;13.98;9.32;;;589.60;2432.00;;;;;;5077681;28;20535;-71
2023/07/07 05:11:42;;;;;;;17.25;9.90;;;589.60;2432.00;;;;;;5083672;28;20428;-70
2023/07/07 05:14:07;;;;;;;14.05;9.43;;;589.60;2432.00;;;;;;5076877;28;20035;-69
2023/07/07 05:16:36;;;;;;;14.80;9.98;;;589.70;2432.00;;;;;;5077767;28;20107;-71
2023/07/07 05:19:02;;;;;;;19.45;8.93;;;614.50;2432.00;;;;;;5082608;28;20034;-69
2023/07/07 05:21:28;;;;;;;15.23;9.75;;;614.50;2432.00;;;;;;5078861;28;20022;-71
2023/07/07 05:23:54;;;;;;;16.80;9.05;;;614.50;2432.00;;;;;;5079955;28;20464;-70
2023/07/07 05:26:22;;;;;;;16.02;9.20;;;614.70;2432.00;;;;;;5082616;28;20021;-73
2023/07/07 05:28:48;;;;;;;15.57;9.50;;;614.80;2432.00;;;;;;5079577;28;20032;-70
2023/07/07 05:31:14;;;;;;;18.05;9.88;;;614.70;2432.00;;;;;;5077229;28;20021;-70
2023/07/07 05:33:40;;;;;;;15.10;8.68;;;614.80;2432.00;;;;;;5079703;28;20533;-71
2023/07/07 05:36:08;;;;;;;15.40;9.57;;;614.80;2432.00;;;;;;5074074;28;20020;-72
2023/07/07 05:38:35;;;;;;;28.50;11.15;;;614.80;2432.00;;;;;;5086910;28;20052;-72
2023/07/07 05:41:01;;;;;;;19.70;9.60;;;614.80;2432.00;;;;;;5081709;28;20012;-73
2023/07/07 05:43:27;;;;;;;18.63;9.75;;;614.80;2432.00;;;;;;5079016;28;20028;-72
2023/07/07 05:46:00;;;;;;;12.95;9.55;;;614.80;2432.00;;;;;;5081746;28;20021;-71
2023/07/07 05:48:27;;;;;;;13.15;9.38;;;614.90;2432.00;;;;;;5078742;28;20017;-71
2023/07/07 05:50:56;;;;;;;13.57;9.20;;;615.00;2432.00;;;;;;5076279;28;20021;-72
2023/07/07 05:53:22;;;;;;;18.33;10.15;;;614.90;2432.00;;;;;;5065000;28;20120;-71
2023/07/07 05:55:49;;;;;;;18.40;11.02;;;615.00;2432.00;;;;;;5075448;28;20044;-71
2023/07/07 05:58:15;;;;;;;14.50;9.95;;;615.00;2432.00;;;;;;5088135;28;20040;-70
2023/07/07 06:00:41;;;;;;;16.23;8.88;;;615.00;2432.00;;;;;;5086646;28;20017;-71
2023/07/07 06:03:07;;;;;;;13.60;9.43;;;615.10;2432.00;;;;;;5072602;28;20028;-70
2023/07/07 06:05:33;;;;;;;13.00;9.35;;;615.00;2432.00;;;;;;5081251;28;20024;-71
2023/07/07 06:08:00;;;;;;;15.90;8.80;;;615.00;2432.00;;;;;;5076479;28;20021;-70
2023/07/07 06:10:26;;;;;;;20.35;9.73;;;615.00;2432.00;;;;;;5067288;28;20069;-71
2023/07/07 06:12:52;;;;;;;15.57;10.23;;;615.10;2432.00;;;;;;5080181;28;20024;-74
2023/07/07 06:15:19;;;;;;;14.85;9.07;;;615.10;2432.00;;;;;;5084507;28;20016;-71
2023/07/07 06:17:45;;;;;;;14.18;9.27;;;615.30;2432.00;;;;;;5083513;28;20082;-70
2023/07/07 06:20:12;;;;;;;19.48;9.25;;;615.30;2432.00;;;;;;5078833;28;20021;-71
2023/07/07 06:22:38;;;;;;;12.45;8.48;;;615.30;2432.00;;;;;;5084138;28;20032;-71
2023/07/07 06:25:04;;;;;;;13.00;9.25;;;615.30;2432.00;;;;;;5077637;28;20024;-72
2023/07/07 06:27:30;;;;;;;13.95;9.27;;;615.30;2432.00;;;;;;5082573;28;20039;-71
2023/07/07 06:29:56;;;;;;;14.65;9.52;;;615.30;2432.00;;;;;;5075762;28;20021;-72
2023/07/07 06:32:22;;;;;;;16.33;8.95;;;640.10;2432.00;;;;;;5076356;28;20028;-71
2023/07/07 06:34:47;;;;;;;14.48;9.05;;;640.20;2432.00;;;;;;5078533;28;20021;-71
2023/07/07 06:37:13;;;;;;;12.43;8.38;;;640.40;2432.00;;;;;;5075384;28;20036;-73
2023/07/07 06:39:39;;;;;;;14.95;9.43;;;640.40;2432.00;;;;;;5083590;28;20208;-71
2023/07/07 06:42:05;;;;;;;13.38;9.15;;;640.40;2432.00;;;;;;5087854;28;20141;-70
2023/07/07 06:44:32;;;;;;;18.70;9.00;;;640.40;2432.00;;;;;;5082683;28;20452;-71
2023/07/07 06:46:58;;;;;;;18.27;8.40;;;640.60;2432.00;;;;;;5076452;28;20390;-71
2023/07/07 06:49:24;;;;;;;13.65;7.70;;;640.60;2432.00;;;;;;5076407;28;20025;-72
2023/07/07 06:51:50;;;;;;;13.45;8.15;;;640.70;2432.00;;;;;;5076395;28;20027;-71
2023/07/07 06:54:15;;;;;;;14.57;8.75;;;640.70;2432.00;;;;;;5078753;28;20458;-72
2023/07/07 06:56:41;;;;;;;18.63;8.82;;;640.80;2432.00;;;;;;5079931;28;20048;-71
2023/07/07 06:59:08;;;;;;;17.02;9.85;;;640.80;2432.00;;;;;;5075801;28;20025;-72
2023/07/07 07:01:34;;;;;;;14.60;9.60;;;665.60;2432.00;;;;;;5080796;28;20572;-71
2023/07/07 07:04:01;;;;;;;11.18;8.63;;;665.60;2432.00;;;;;;5074646;28;20036;-71
2023/07/07 07:06:28;;;;;;;16.58;9.13;;;665.70;2432.00;;;;;;5081313;28;20008;-72
2023/07/07 07:08:53;;;;;;;17.55;8.38;;;666.00;2432.00;;;;;;5073254;28;20103;-70
2023/07/07 07:11:19;;;;;;;11.93;9.27;;;666.10;2432.00;;;;;;5078024;28;20092;-70
2023/07/07 07:13:45;;;;;;;11.90;8.45;;;666.20;2432.00;;;;;;5075264;28;20047;-71
2023/07/07 07:16:11;;;;;;;15.88;9.07;;;666.30;2432.00;;;;;;5079903;28;20021;-72
2023/07/07 07:18:38;;;;;;;12.13;8.45;;;666.50;2432.00;;;;;;5079160;28;20032;-71
2023/07/07 07:21:03;;;;;;;12.15;7.97;;;666.50;2432.00;;;;;;5080407;28;20020;-74
2023/07/07 07:23:29;;;;;;;13.20;7.85;;;666.50;2432.00;;;;;;5078043;28;20025;-71
2023/07/07 07:25:55;;;;;;;11.05;7.78;;;691.20;2432.00;;;;;;5078134;28;20029;-71
2023/07/07 07:28:20;;;;;;;10.30;7.70;;;691.30;2432.00;;;;;;5074549;28;20036;-70
2023/07/07 07:30:46;;;;;;;12.73;8.27;;;691.40;2432.00;;;;;;5080073;28;20042;-72
2023/07/07 07:33:19;;;;;;;14.48;8.43;;;691.40;2432.00;;;;;;5077229;28;20056;-70
2023/07/07 07:35:45;;;;;;;14.73;9.70;;;691.50;2432.00;;;;;;5084055;28;20028;-70
2023/07/07 07:38:11;;;;;;;15.07;9.90;;;691.50;2432.00;;;;;;5076533;28;20032;-72
2023/07/07 07:40:37;;;;;;;13.32;8.93;;;691.70;2432.00;;;;;;5082100;28;20385;-71
2023/07/07 07:43:03;;;;;;;14.55;8.85;;;691.70;2432.00;;;;;;5079883;28;20024;-73
2023/07/07 07:45:29;;;;;;;13.18;8.45;;;691.70;2432.00;;;;;;5079829;28;20021;-70
2023/07/07 07:47:54;;;;;;;13.00;8.93;;;691.80;2432.00;;;;;;5084245;28;20381;-70
2023/07/07 07:50:21;;;;;;;13.98;9.00;;;692.00;2432.00;;;;;;5076601;28;20382;-71
2023/07/07 07:52:48;;;;;;;12.25;8.35;;;692.10;2432.00;;;;;;5074840;28;20025;-71
2023/07/07 07:55:14;;;;;;;11.43;8.40;;;692.10;2432.00;;;;;;5080358;28;20020;-70
2023/07/07 07:57:41;;;;;;;12.75;8.60;;;716.90;2432.00;;;;;;5077576;28;20051;-72
2023/07/07 08:00:07;;;;;;;12.93;8.40;;;716.80;2432.00;;;;;;5080065;28;20108;-76
2023/07/07 08:02:33;;;;;;;14.73;8.30;;;717.00;2432.00;;;;;;5081320;28;20039;-70
2023/07/07 08:04:58;;;;;;;11.98;7.70;;;717.10;2432.00;;;;;;5077268;28;20107;-70
2023/07/07 08:07:25;;;;;;;9.25;7.30;;;717.00;2432.00;;;;;;5082395;28;20066;-75
2023/07/07 08:09:51;;;;;;;11.85;7.38;;;717.10;2432.00;;;;;;5077839;28;20059;-72
2023/07/07 08:12:17;;;;;;;16.45;8.18;;;717.10;2432.00;;;;;;5083034;28;20055;-72
2023/07/07 08:14:42;;;;;;;12.73;7.80;;;717.20;2432.00;;;;;;5080357;28;20082;-73
2023/07/07 08:17:11;;;;;;;12.77;8.63;;;717.10;2432.00;;;;;;5078079;28;20032;-73
2023/07/07 08:19:38;;;;;;;14.07;7.20;;;717.30;2432.00;;;;;;5085875;28;20036;-70
2023/07/07 08:22:19;;;;;;;15.45;7.88;;;717.40;2432.00;;;;;;5080685;28;20155;-72
2023/07/07 08:24:47;;;;;;;10.65;7.22;;;717.30;2329.60;;;;;;5080560;28;20028;-73
2023/07/07 08:27:13;;;;;;;15.45;7.53;;;717.20;2329.60;;;;;;5078073;28;20067;-74
2023/07/07 08:29:40;;;;;;;14.35;7.80;;;717.40;2432.00;;;;;;5082526;28;20024;-72
2023/07/07 08:32:06;;;;;;;12.88;6.50;;;717.50;2329.60;;;;;;5080960;28;20035;-74
2023/07/07 08:34:32;;;;;;;13.57;6.70;;;717.40;2252.80;;;;;;5083776;28;20506;-71
2023/07/07 08:37:01;;;;;;;12.00;6.20;;;717.40;2150.40;;;;;;5080101;28;20042;-76
2023/07/07 08:39:29;;;;;;;10.80;6.55;;;717.40;2227.20;;;;;;5078813;28;20168;-70
2023/07/07 08:42:05;;;;;;;14.05;6.28;;;717.50;2252.80;;;;;;5082047;28;20028;-73
2023/07/07 08:44:34;;;;;;;12.35;5.68;;;717.50;2124.80;;;;;;5075098;28;20133;-72
2023/07/07 08:47:11;;;;;;;10.20;6.07;;;717.40;2150.40;;;;;;5077689;28;20024;-72
2023/07/07 08:50:12;;;;;;;9.18;5.93;;;717.40;2099.20;;;;;;5075862;28;20044;-71
2023/07/07 08:52:43;;;;;;;9.52;6.28;;;717.40;2124.80;;;;;;5086236;28;20024;-71
2023/07/07 08:55:37;;;;;;;8.98;5.85;;;717.40;2150.40;;;;;;5077345;28;20031;-77
2023/07/07 08:58:15;;;;;;;12.32;5.75;;;717.50;2073.60;;;;;;5083378;28;20052;-73
2023/07/07 09:00:52;;;;;;;13.65;5.97;;;717.50;2124.80;;;;;;5072894;28;20380;-74
2023/07/07 09:03:23;;;;;;;12.05;5.90;;;717.70;2099.20;;;;;;5077774;28;20378;-72
2023/07/07 09:06:19;;;;;;;7.47;5.07;;;717.60;2099.20;;;;;;5075170;28;20024;-70
2023/07/07 09:08:56;;;;;;;9.45;5.10;;;717.70;2150.40;;;;;;5076961;28;20021;-73
2023/07/07 09:11:44;;;;;;;8.90;5.68;;;742.40;2073.60;;;;;;5083136;28;20099;-70
2023/07/07 09:14:13;;;;;;;8.02;5.03;;;742.50;2124.80;;;;;;5083718;28;20481;-71
2023/07/07 09:16:42;;;;;;;9.02;5.72;;;742.40;2022.40;;;;;;5079312;28;20052;-70
2023/07/07 09:19:35;;;;;;;10.45;5.55;;;742.50;2022.40;;;;;;5081608;28;20030;-71
2023/07/07 09:22:25;;;;;;;10.00;5.68;;;742.50;2022.40;;;;;;5081071;28;20020;-70
2023/07/07 09:25:20;;;;;;;10.63;6.18;;;742.80;2022.40;;;;;;5079661;28;20027;-74
2023/07/07 09:27:55;;;;;;;7.65;5.05;;;742.60;1971.20;;;;;;5083152;28;20059;-70
2023/07/07 09:30:43;;;;;;;8.60;5.95;;;742.70;1971.20;;;;;;5085809;28;20024;-70
2023/07/07 09:33:21;;;;;;;12.88;5.93;;;742.80;1971.20;;;;;;5080073;28;20028;-71
2023/07/07 09:36:02;;;;;;;14.43;4.82;;;742.90;1920.00;;;;;;5083026;28;20027;-71
2023/07/07 09:38:47;;;;;;;9.13;4.90;;;742.90;1843.20;;;;;;5081159;28;20040;-70
2023/07/07 09:41:35;;;;;;;8.82;4.65;;;743.10;1868.80;;;;;;5070320;28;20027;-71
2023/07/07 09:44:28;;;;;;;9.27;4.38;;;743.30;1792.00;;;;;;5084848;28;20028;-71
2023/07/07 09:47:06;;;;;;;8.80;5.28;;;743.20;1817.60;;;;;;5076330;28;20028;-72
2023/07/07 09:50:03;;;;;;;8.95;5.28;;;768.00;1766.40;;;;;;5080468;28;20074;-71
2023/07/07 09:52:54;;;;;;;7.20;5.07;;;768.10;1766.40;;;;;;5074481;28;20639;-71
2023/07/07 09:55:41;;;;;;;8.27;5.20;;;768.30;1766.40;;;;;;5074985;28;20060;-71
2023/07/07 09:58:16;;;;;;;11.65;4.93;;;768.50;1740.80;;;;;;5085502;28;20035;-70
2023/07/07 10:00:47;;;;;;;10.45;5.82;;;768.60;1740.80;;;;;;5083366;28;20130;-76
2023/07/07 10:03:40;;;;;;;7.57;4.55;;;768.70;1664.00;;;;;;5073064;28;20044;-71
2023/07/07 10:06:31;;;;;;;7.47;4.68;;;768.80;1664.00;;;;;;5078779;28;20024;-72
2023/07/07 10:08:56;;;;;;;8.48;4.50;;;793.70;1715.20;;;;;;5078745;28;20055;-69
2023/07/07 10:11:28;;;;;;;8.85;5.43;;;793.70;1612.80;;;;;;5076127;28;20028;-69
2023/07/07 10:13:55;;;;;;;6.88;4.20;;;793.70;1612.80;;;;;;5077038;28;20028;-77
2023/07/07 10:16:32;;;;;;;8.45;4.53;;;794.00;1612.80;;;;;;5076977;28;20052;-70
2023/07/07 10:19:10;;;;;;;8.23;4.95;;;793.70;1612.80;;;;;;5078234;28;20367;-70
2023/07/07 10:21:35;;;;;;;9.77;5.63;;;768.60;1587.20;;;;;;5073260;28;20390;-70
2023/07/07 10:24:02;;;;;;;7.55;4.80;;;768.90;1587.20;;;;;;5078601;28;20044;-70
2023/07/07 10:26:27;;;;;;;7.30;4.70;;;793.70;1664.00;;;;;;5077414;28;20036;-73
2023/07/07 10:28:58;;;;;;;14.40;5.55;;;793.90;1587.20;;;;;;5075605;28;20017;-70
2023/07/07 10:31:26;;;;;;;12.43;4.95;;;794.00;1561.60;;;;;;5078714;28;20043;-70
2023/07/07 10:34:00;;;;;;;12.25;4.80;;;794.20;1587.20;;;;;;5081971;28;20050;-70
2023/07/07 10:36:29;;;;;;;8.43;5.20;;;794.40;1536.00;;;;;;5067914;28;20079;-70
2023/07/07 10:38:58;;;;;;;8.32;4.90;;;793.80;1536.00;;;;;;5075800;28;20136;-70
2023/07/07 10:41:26;;;;;;;8.73;5.03;;;768.60;1561.60;;;;;;5079467;28;20028;-70
2023/07/07 10:43:53;;;;;;;8.57;4.57;;;793.70;1612.80;;;;;;5086174;28;20028;-71
2023/07/07 10:46:19;;;;;;;7.15;4.97;;;794.10;1459.20;;;;;;5076279;28;20488;-74
2023/07/07 10:48:46;;;;;;;9.07;4.70;;;794.20;1459.20;;;;;;5080134;28;20032;-70
2023/07/07 10:51:35;;;;;;;13.30;4.70;;;794.40;1459.20;;;;;;5075449;28;20016;-76
2023/07/07 10:54:15;;;;;;;8.07;5.13;;;819.30;1356.80;;;;;;5079551;28;20440;-70
2023/07/07 10:56:45;;;;;;;6.25;4.57;;;819.30;1356.80;;;;;;5081359;28;20051;-70
2023/07/07 10:59:25;;;;;;;7.28;4.25;;;819.40;1382.40;;;;;;5082737;28;20027;-71
2023/07/07 11:02:10;;;;;;;12.75;4.40;;;819.30;1408.00;;;;;;5079245;28;20099;-69
2023/07/07 11:04:57;;;;;;;8.13;4.70;;;794.30;1382.40;;;;;;5075390;28;20543;-70
2023/07/07 11:07:54;;;;;;;9.05;4.68;;;819.30;1408.00;;;;;;5081985;28;20494;-69
2023/07/07 11:10:40;;;;;;;5.80;4.18;;;819.40;1408.00;;;;;;5082618;28;20028;-69
2023/07/07 11:13:22;;;;;;;8.40;4.35;;;819.40;1382.40;;;;;;5073090;28;20103;-75
2023/07/07 11:16:04;;;;;;;7.65;5.40;;;819.60;1408.00;;;;;;5080730;28;20029;-77
2023/07/07 11:18:52;;;;;;;9.20;5.07;;;820.10;1433.60;;;;;;5078214;28;20039;-70
2023/07/07 11:21:30;;;;;;;8.38;3.90;;;819.40;1382.40;;;;;;5080922;28;20109;-71
2023/07/07 11:24:05;;;;;;;6.63;4.78;;;794.40;1433.60;;;;;;5078203;28;20359;-70
2023/07/07 11:26:55;;;;;;;9.73;5.03;;;819.30;1382.40;;;;;;5081848;28;20025;-70
2023/07/07 11:29:52;;;;;;;7.13;4.70;;;794.30;1382.40;;;;;;5077684;28;20130;-70
2023/07/07 11:32:33;;;;;;;8.07;4.78;;;819.30;1331.20;;;;;;5060803;28;20040;-73
2023/07/07 11:35:14;;;;;;;7.03;4.45;;;819.50;1280.00;;;;;;5078552;28;20019;-70
2023/07/07 11:38:15;;;;;;;9.00;4.70;;;819.60;1305.60;;;;;;5079240;28;20090;-70
2023/07/07 11:41:11;;;;;;;6.75;4.80;;;819.80;1305.60;;;;;;5036979;28;20048;-74
2023/07/07 11:43:58;;;;;;;9.48;5.20;;;819.90;1228.80;;;;;;5037824;28;20026;-69
2023/07/07 11:46:53;;;;;;;7.25;4.80;;;820.00;1305.60;;;;;;5036928;28;20513;-74
2023/07/07 11:49:30;;;;;;;8.95;4.85;;;820.10;1305.60;;;;;;5040088;28;20087;-71
2023/07/07 11:52:20;;;;;;;7.97;4.63;;;845.00;1305.60;;;;;;5041405;28;20044;-70
2023/07/07 11:54:48;;;;;;;10.57;5.25;;;820.10;1254.40;;;;;;5036587;28;20045;-71
2023/07/07 11:57:31;;;;;;;6.72;4.43;;;820.10;1280.00;;;;;;5039854;28;20505;-71
2023/07/07 12:00:14;;;;;;;7.22;4.72;;;844.90;1356.80;;;;;;5038853;28;20032;-72
2023/07/07 12:02:49;;;;;;;7.43;4.30;;;820.10;1280.00;;;;;;5040788;28;20056;-75
2023/07/07 12:05:28;;;;;;;13.25;4.63;;;819.80;1331.20;;;;;;5039551;28;20017;-71
2023/07/07 12:08:17;;;;;;;9.30;4.82;;;819.30;1331.20;;;;;;5038631;28;20048;-71
2023/07/07 12:10:46;;;;;;;6.70;4.70;;;819.50;1382.40;;;;;;5036016;28;20232;-70
2023/07/07 12:13:21;;;;;;;8.98;4.32;;;819.60;1356.80;;;;;;5036776;28;20032;-69
2023/07/07 12:15:50;;;;;;;13.98;5.00;;;819.40;1331.20;;;;;;5079642;28;20377;-71
2023/07/07 12:18:20;;;;;;;9.63;5.13;;;819.90;1331.20;;;;;;5077806;28;20028;-70
2023/07/07 12:20:49;;;;;;;10.27;5.13;;;820.10;1331.20;;;;;;5082116;28;20390;-71
2023/07/07 12:23:19;;;;;;;9.23;4.95;;;820.10;1305.60;;;;;;5081796;28;20020;-70
2023/07/07 12:25:46;;;;;;;8.00;4.93;;;819.80;1331.20;;;;;;5085311;28;20096;-71
2023/07/07 12:28:13;;;;;;;7.53;4.63;;;794.50;1331.20;;;;;;5084093;28;20602;-71